createdAt,value
2023-05-07T00:07:02.408Z,16.63
2023-05-07T00:14:36.391Z,17.48
2023-05-07T00:22:11.974Z,19.10
2023-05-07T00:29:45.864Z,22.35
2023-05-07T00:37:21.133Z,18.13
2023-05-07T00:44:55.126Z,17.23
2023-05-07T00:52:32.005Z,17.03
2023-05-07T01:00:07.014Z,17.85
2023-05-07T01:07:44.443Z,14.02
2023-05-07T01:15:19.124Z,14.95
2023-05-07T01:22:55.601Z,14.05
2023-05-07T01:30:30.314Z,10.88
2023-05-07T01:38:07.232Z,14.52
2023-05-07T01:45:42.473Z,12.93
2023-05-07T02:01:10.381Z,12.43
2023-05-07T02:08:45.826Z,13.00
2023-05-07T02:16:20.463Z,15.40
2023-05-07T02:23:55.873Z,16.40
2023-05-07T02:31:29.620Z,15.13
2023-05-07T02:39:05.794Z,13.57
2023-05-07T02:46:39.759Z,13.10
2023-05-07T02:54:15.242Z,19.00
2023-05-07T03:01:49.735Z,15.73
2023-05-07T03:09:25.428Z,13.80
2023-05-07T03:16:59.243Z,14.18
2023-05-07T03:24:34.429Z,12.98
2023-05-07T03:32:08.281Z,17.38
2023-05-07T03:39:43.575Z,13.68
2023-05-07T03:47:17.544Z,12.43
2023-05-07T03:54:52.815Z,14.70
2023-05-07T04:10:19.378Z,14.15
2023-05-07T04:17:53.341Z,14.73
2023-05-07T04:25:28.758Z,15.10
2023-05-07T04:33:02.618Z,14.75
2023-05-07T04:40:40.017Z,15.90
2023-05-07T04:48:15.846Z,13.75
2023-05-07T04:55:51.376Z,14.00
2023-05-07T05:03:25.426Z,18.02
2023-05-07T05:18:53.236Z,9.98
2023-05-07T05:26:28.429Z,10.95
2023-05-07T05:34:02.349Z,10.68
2023-05-07T05:49:29.583Z,9.82
2023-05-07T05:57:05.254Z,9.97
2023-05-07T06:04:39.341Z,10.90
2023-05-07T06:12:14.731Z,8.93
2023-05-07T06:19:48.521Z,7.18
2023-05-07T06:27:23.875Z,8.98
2023-05-07T06:34:57.670Z,7.63
2023-05-07T06:42:33.928Z,8.05
2023-05-07T06:50:09.960Z,7.30
2023-05-07T06:57:45.384Z,8.48
2023-05-07T07:05:19.338Z,11.88
2023-05-07T07:12:55.252Z,12.13
2023-05-07T07:20:29.095Z,10.57
2023-05-07T07:28:04.459Z,10.75
2023-05-07T07:35:38.451Z,9.95
2023-05-07T07:51:05.083Z,9.40
2023-05-07T07:58:40.455Z,6.27
2023-05-07T08:14:07.067Z,5.90
2023-05-07T08:21:41.964Z,6.65
2023-05-07T08:36:50.940Z,4.32
2023-05-07T08:44:29.084Z,3.85
2023-05-07T08:52:03.696Z,6.10
2023-05-07T08:59:39.076Z,6.65
2023-05-07T09:07:12.918Z,5.88
2023-05-07T09:14:48.172Z,5.03
2023-05-07T09:22:22.101Z,7.20
2023-05-07T09:29:57.657Z,5.00
2023-05-07T09:37:33.152Z,3.35
2023-05-07T09:45:10.679Z,3.60
2023-05-07T09:52:46.091Z,5.57
2023-05-07T10:00:22.966Z,3.83
2023-05-07T10:08:03.981Z,4.35
2023-05-07T10:15:40.668Z,2.42
2023-05-07T10:23:19.780Z,2.75
2023-05-07T10:31:11.904Z,2.45
2023-05-07T10:38:45.944Z,1.88
2023-05-07T10:46:22.781Z,3.03
2023-05-07T10:54:21.217Z,2.88
2023-05-07T11:01:59.134Z,2.97
2023-05-07T11:09:59.495Z,1.80
2023-05-07T11:17:37.286Z,2.05
2023-05-07T11:25:11.783Z,1.70
2023-05-07T11:32:50.215Z,2.17
2023-05-07T11:40:24.275Z,2.10
2023-05-07T11:47:59.736Z,1.98
2023-05-07T11:55:33.822Z,2.47
2023-05-07T12:03:10.227Z,1.85
2023-05-07T12:18:41.161Z,1.98
2023-05-07T12:26:15.109Z,2.08
2023-05-07T12:33:50.809Z,2.25
2023-05-07T12:41:28.094Z,1.77
2023-05-07T12:57:02.782Z,1.92
2023-05-07T13:04:38.449Z,3.08
2023-05-07T13:12:12.317Z,3.13
2023-05-07T13:19:47.528Z,3.28
2023-05-07T13:27:21.554Z,2.45
2023-05-07T13:34:56.845Z,1.80
2023-05-07T13:42:30.757Z,2.22
2023-05-07T13:50:07.116Z,2.42
2023-05-07T13:57:41.267Z,3.92
2023-05-07T14:05:16.720Z,4.00
2023-05-07T14:20:47.623Z,3.90
2023-05-07T14:28:21.539Z,1.67
2023-05-07T14:35:56.704Z,2.92
2023-05-07T14:43:30.555Z,2.30
2023-05-07T14:51:05.858Z,3.67
2023-05-07T14:58:43.676Z,2.00
2023-05-07T15:06:18.865Z,2.92
2023-05-07T15:13:52.787Z,3.50
2023-05-07T15:21:28.791Z,2.85
2023-05-07T15:29:04.258Z,2.28
2023-05-07T15:36:39.610Z,2.08
2023-05-07T15:44:13.610Z,2.65
2023-05-07T15:51:48.942Z,2.15
2023-05-07T15:59:22.839Z,1.95
2023-05-07T16:06:58.506Z,3.65
2023-05-07T16:14:32.469Z,1.52
2023-05-07T16:22:07.620Z,2.85
2023-05-07T16:29:41.565Z,3.35
2023-05-07T16:45:09.620Z,1.77
2023-05-07T17:00:23.478Z,2.30
2023-05-07T17:07:59.447Z,2.28
2023-05-07T17:23:26.322Z,1.48
2023-05-07T17:31:00.328Z,1.73
2023-05-07T17:38:46.901Z,1.88
2023-05-07T17:46:21.150Z,2.20
2023-05-07T17:53:56.931Z,1.50
2023-05-07T18:01:31.434Z,2.65
2023-05-07T18:09:07.470Z,1.95
2023-05-07T18:16:41.552Z,1.50
2023-05-07T18:24:16.810Z,1.40
2023-05-07T18:39:44.484Z,1.73
2023-05-07T18:47:18.562Z,1.98
2023-05-07T18:54:53.790Z,3.10
2023-05-07T19:18:11.976Z,2.72
2023-05-07T19:25:49.000Z,1.98
2023-05-07T19:33:24.319Z,2.25
2023-05-07T19:41:00.603Z,2.42
2023-05-07T19:48:34.559Z,2.42
2023-05-07T19:56:11.690Z,5.10
2023-05-07T20:03:46.386Z,3.70
2023-05-07T20:11:21.601Z,3.17
2023-05-07T20:18:55.315Z,3.38
2023-05-07T20:26:30.358Z,4.05
2023-05-07T20:41:39.156Z,3.70
2023-05-07T20:49:13.089Z,3.85
2023-05-07T20:56:48.202Z,3.88
2023-05-07T21:04:21.981Z,4.28
2023-05-07T21:11:57.964Z,4.07
2023-05-07T21:19:31.701Z,5.47
2023-05-07T21:27:06.822Z,3.78
2023-05-07T21:34:40.575Z,5.45
2023-05-07T21:42:15.717Z,4.38
2023-05-07T21:49:49.464Z,4.90
2023-05-07T21:57:24.527Z,6.70
2023-05-07T22:04:58.273Z,4.63
2023-05-07T22:12:33.664Z,4.03
2023-05-07T22:20:08.992Z,5.43
2023-05-07T22:27:44.722Z,6.80
2023-05-07T22:35:18.390Z,5.50
2023-05-07T22:42:53.486Z,5.97
2023-05-07T22:50:27.189Z,9.40
2023-05-07T22:58:02.250Z,5.85
2023-05-07T23:05:36.206Z,4.80
2023-05-07T23:13:17.058Z,5.73
2023-05-07T23:20:51.071Z,4.93
2023-05-07T23:28:26.254Z,6.90
2023-05-07T23:36:00.769Z,5.30
2023-05-07T23:43:36.470Z,6.30
2023-05-07T23:51:10.414Z,5.90
2023-05-07T23:58:45.719Z,6.27
